Time;durP1;ratioP1;P1;durP2;ratioP2;P2;SDS_P1;SDS_P2;PMS_P1;PMS_P2;Temp;Humidity;BMP_temperature;BMP_pressure;BME280_temperature;BME280_humidity;BME280_pressure;Samples;Min_cycle;Max_cycle;Signal;HPM_P1;HPM_P2
2022/11/16 00:01:27;;;;;;;6.00;4.37;;;12.10;1.00;;;;;;5081018;28;20420;-84
2022/11/16 00:04:24;;;;;;;7.10;4.37;;;12.20;1.00;;;;;;5078595;28;20453;-84
2022/11/16 00:06:54;;;;;;;7.07;4.53;;;12.20;1.00;;;;;;5086310;28;20472;-84
2022/11/16 00:09:54;;;;;;;12.10;5.07;;;12.10;1.00;;;;;;5085931;28;20785;-84
2022/11/16 00:12:24;;;;;;;9.90;5.03;;;12.10;1.00;;;;;;5082579;28;20972;-84
2022/11/16 00:14:54;;;;;;;8.23;4.93;;;12.10;1.00;;;;;;5077552;28;20425;-84
2022/11/16 00:17:20;;;;;;;4.90;4.40;;;12.10;1.00;;;;;;5079130;28;20920;-84
2022/11/16 00:19:54;;;;;;;12.27;5.07;;;12.10;1.00;;;;;;5074274;28;20432;-85
2022/11/16 00:22:24;;;;;;;7.60;5.00;;;12.10;1.00;;;;;;5084107;28;20607;-84
2022/11/16 00:24:54;;;;;;;8.73;4.80;;;12.20;1.00;;;;;;5079716;28;20511;-84
2022/11/16 00:30:59;;;;;;;7.10;4.90;;;12.10;1.00;;;;;;5082853;28;20404;-84
2022/11/16 00:33:24;;;;;;;8.17;5.03;;;12.10;1.00;;;;;;5074817;28;20411;-84
2022/11/16 00:35:54;;;;;;;11.80;5.00;;;12.10;1.00;;;;;;5074208;28;20413;-85
2022/11/16 00:38:20;;;;;;;7.63;4.90;;;12.10;1.00;;;;;;5072625;28;20236;-84
2022/11/16 00:41:24;;;;;;;7.80;5.47;;;12.10;1.00;;;;;;5081022;28;20466;-84
2022/11/16 00:43:54;;;;;;;10.00;5.60;;;12.10;1.00;;;;;;5079222;28;20252;-85
2022/11/16 00:46:24;;;;;;;6.63;5.10;;;12.10;1.00;;;;;;5082484;28;20498;-85
2022/11/16 00:48:54;;;;;;;8.23;5.40;;;12.10;1.00;;;;;;5073186;28;20421;-84
2022/11/16 00:51:24;;;;;;;6.70;5.27;;;12.10;1.00;;;;;;5086661;28;20987;-85
2022/11/16 00:54:24;;;;;;;8.23;4.87;;;12.10;1.00;;;;;;5090576;28;20815;-85
2022/11/16 00:57:24;;;;;;;10.37;4.77;;;12.10;1.00;;;;;;5073517;28;20407;-84
2022/11/16 01:00:08;;;;;;;8.20;5.00;;;12.10;1.00;;;;;;5078117;28;20932;-84
2022/11/16 01:03:06;;;;;;;7.20;5.30;;;12.00;1.00;;;;;;5081283;28;20439;-85
2022/11/16 01:05:36;;;;;;;6.43;4.90;;;12.00;1.00;;;;;;5077282;28;20433;-84
2022/11/16 01:17:38;;;;;;;6.80;5.53;;;12.00;1.00;;;;;;5085274;28;20434;-84
2022/11/16 01:20:30;;;;;;;10.43;5.90;;;12.00;1.00;;;;;;5086948;28;20432;-84
2022/11/16 01:23:00;;;;;;;6.73;5.23;;;12.00;1.20;;;;;;5084286;28;20795;-84
2022/11/16 01:25:36;;;;;;;11.40;5.70;;;12.00;1.50;;;;;;5084419;28;20428;-84
2022/11/16 01:28:18;;;;;;;8.20;5.47;;;12.00;2.60;;;;;;5077640;28;20444;-84
2022/11/16 01:34:06;;;;;;;11.13;5.93;;;11.90;2.10;;;;;;5079992;28;20432;-84
2022/11/16 01:40:06;;;;;;;8.17;6.03;;;11.90;3.50;;;;;;5081561;28;20453;-85
2022/11/16 01:42:54;;;;;;;14.67;5.93;;;11.90;4.00;;;;;;5071694;28;20424;-84
2022/11/16 01:45:42;;;;;;;9.40;5.47;;;11.90;4.10;;;;;;5071887;28;20404;-84
2022/11/16 01:48:18;;;;;;;7.47;5.83;;;11.90;3.50;;;;;;5083428;28;20401;-85
2022/11/16 01:50:45;;;;;;;8.37;6.00;;;11.90;4.00;;;;;;5074650;28;20455;-84
2022/11/16 01:56:55;;;;;;;7.97;5.90;;;11.80;4.10;;;;;;5072792;28;20463;-84
2022/11/16 02:00:11;;;;;;;10.50;6.57;;;11.80;5.10;;;;;;5085046;28;20475;-84
2022/11/16 02:03:12;;;;;;;13.33;6.20;;;11.80;5.70;;;;;;5077519;28;20429;-84
2022/11/16 02:06:00;;;;;;;14.33;5.40;;;11.80;6.80;;;;;;5099829;28;20424;-84
2022/11/16 02:15:30;;;;;;;14.43;6.77;;;11.70;9.10;;;;;;5087646;28;20436;-84
2022/11/16 02:18:48;;;;;;;10.83;6.07;;;11.70;9.10;;;;;;5076787;28;20432;-84
2022/11/16 02:24:44;;;;;;;11.70;6.60;;;11.70;10.20;;;;;;5085265;28;20448;-84
2022/11/16 02:27:52;;;;;;;13.63;7.30;;;11.70;11.00;;;;;;5078895;28;20439;-84
2022/11/16 02:30:41;;;;;;;14.50;6.70;;;11.70;10.90;;;;;;5085377;28;20417;-84
2022/11/16 02:33:30;;;;;;;10.03;6.53;;;11.80;11.40;;;;;;5086256;28;20515;-84
2022/11/16 02:36:04;;;;;;;12.13;6.77;;;11.80;11.00;;;;;;5080130;28;20448;-84
2022/11/16 02:39:12;;;;;;;9.30;6.80;;;11.80;10.60;;;;;;5084496;28;20421;-84
2022/11/16 02:42:08;;;;;;;10.20;6.50;;;11.80;10.50;;;;;;5081473;28;20787;-84
2022/11/16 02:44:40;;;;;;;9.20;6.40;;;11.80;10.00;;;;;;5080731;28;20424;-84
2022/11/16 02:47:29;;;;;;;10.33;7.10;;;11.80;12.10;;;;;;5074837;28;20443;-84
2022/11/16 02:50:20;;;;;;;8.83;6.83;;;11.80;9.00;;;;;;5086855;28;20425;-84
2022/11/16 02:56:56;;;;;;;14.60;6.30;;;11.80;9.30;;;;;;5075719;28;20923;-84
2022/11/16 02:59:43;;;;;;;12.30;7.00;;;11.80;9.40;;;;;;5012565;28;20522;-84
2022/11/16 03:02:20;;;;;;;16.90;6.80;;;11.80;9.90;;;;;;4982888;28;20460;-84
2022/11/16 03:08:54;;;;;;;18.80;6.30;;;11.80;9.70;;;;;;5005804;28;20427;-84
2022/11/16 03:12:07;;;;;;;15.30;7.10;;;11.80;8.20;;;;;;5013292;28;20490;-85
2022/11/16 03:15:08;;;;;;;21.83;8.20;;;11.80;9.40;;;;;;5005340;28;20468;-84
2022/11/16 03:18:07;;;;;;;12.23;6.23;;;11.80;10.70;;;;;;5002960;28;20974;-85
2022/11/16 03:24:12;;;;;;;12.90;7.47;;;11.80;10.90;;;;;;5005642;28;20415;-84
2022/11/16 03:30:19;;;;;;;10.60;6.80;;;11.80;11.90;;;;;;5003584;28;20462;-84
2022/11/16 03:33:09;;;;;;;9.80;6.60;;;11.80;12.20;;;;;;5012163;28;21128;-84
2022/11/16 03:35:48;;;;;;;22.93;7.50;;;11.80;13.10;;;;;;5020472;28;20498;-84
2022/11/16 03:38:21;;;;;;;9.97;6.93;;;11.90;12.90;;;;;;5087600;28;20401;-84
2022/11/16 03:40:49;;;;;;;13.67;7.40;;;11.90;12.00;;;;;;5073871;28;20436;-84
2022/11/16 03:43:17;;;;;;;11.93;6.90;;;11.80;12.30;;;;;;5076713;28;20479;-85
2022/11/16 03:46:24;;;;;;;11.57;7.07;;;11.80;13.90;;;;;;5081886;28;20466;-84
2022/11/16 03:49:12;;;;;;;11.33;7.30;;;11.80;13.80;;;;;;5094555;28;20428;-84
2022/11/16 03:51:54;;;;;;;8.70;6.37;;;11.90;13.30;;;;;;5095522;28;20487;-84
2022/11/16 03:54:20;;;;;;;12.63;7.17;;;11.90;14.50;;;;;;5082380;28;20421;-84
2022/11/16 03:57:18;;;;;;;12.30;7.80;;;11.90;14.70;;;;;;5075611;28;20413;-84
2022/11/16 03:59:54;;;;;;;11.77;7.23;;;11.90;16.60;;;;;;5073528;28;20183;-84
2022/11/16 04:02:36;;;;;;;15.67;7.00;;;11.90;16.90;;;;;;5074598;28;20413;-84
2022/11/16 04:24:38;;;;;;;17.30;8.50;;;11.80;43.40;;;;;;5078421;28;20428;-84
2022/11/16 04:43:18;;;;;;;17.73;10.90;;;11.90;40.20;;;;;;5075462;28;20444;-82
2022/11/16 04:48:36;;;;;;;20.20;11.90;;;11.80;47.60;;;;;;5085687;28;20837;-82
2022/11/16 04:51:06;;;;;;;20.27;12.67;;;11.80;43.60;;;;;;5072251;28;20434;-81
2022/11/16 04:53:36;;;;;;;22.00;12.83;;;11.80;43.50;;;;;;5080725;28;20785;-80
2022/11/16 04:56:06;;;;;;;27.40;14.57;;;11.80;43.50;;;;;;5077001;28;20417;-81
2022/11/16 04:58:36;;;;;;;21.63;12.37;;;11.90;43.60;;;;;;5073030;28;20414;-80
2022/11/16 05:01:12;;;;;;;26.60;14.50;;;11.90;43.60;;;;;;5073295;28;20992;-81
2022/11/16 05:03:54;;;;;;;26.53;13.37;;;11.80;43.50;;;;;;5080160;28;21083;-81
2022/11/16 05:06:27;;;;;;;23.47;13.87;;;11.70;43.40;;;;;;5078418;28;20413;-81
2022/11/16 05:09:30;;;;;;;29.77;14.90;;;11.80;43.50;;;;;;5082023;28;20439;-81
2022/11/16 05:12:00;;;;;;;33.40;15.70;;;11.70;43.60;;;;;;5087382;28;20521;-81
2022/11/16 05:14:36;;;;;;;28.40;14.80;;;11.70;51.40;;;;;;5077074;28;20987;-82
2022/11/16 05:17:06;;;;;;;24.03;14.13;;;11.80;57.40;;;;;;5077341;28;20502;-82
2022/11/16 05:22:36;;;;;;;21.63;14.03;;;11.80;49.40;;;;;;5080087;28;20434;-82
2022/11/16 05:25:05;;;;;;;24.63;14.50;;;11.80;53.80;;;;;;5078425;28;20416;-82
2022/11/16 05:27:31;;;;;;;25.27;14.27;;;11.70;51.70;;;;;;5081678;28;20497;-81
2022/11/16 05:30:30;;;;;;;24.43;13.60;;;11.80;49.80;;;;;;5074595;28;20916;-83
2022/11/16 05:33:00;;;;;;;24.43;14.23;;;11.80;47.60;;;;;;5075721;28;20281;-82
2022/11/16 05:35:26;;;;;;;23.20;14.13;;;11.80;43.50;;;;;;5081774;28;20435;-82
2022/11/16 05:37:51;;;;;;;24.17;13.80;;;11.80;43.50;;;;;;5081014;28;20413;-81
2022/11/16 05:40:31;;;;;;;26.57;14.23;;;11.80;43.40;;;;;;5079627;28;20244;-81
2022/11/16 05:43:12;;;;;;;24.83;13.50;;;11.80;43.50;;;;;;5082683;28;20210;-82
2022/11/16 05:45:38;;;;;;;25.87;13.63;;;11.80;43.40;;;;;;5092506;28;20412;-81
2022/11/16 05:48:06;;;;;;;25.47;13.63;;;11.80;43.40;;;;;;5093186;28;20404;-81
2022/11/16 05:50:36;;;;;;;17.33;12.17;;;11.80;43.50;;;;;;5081930;28;20588;-81
2022/11/16 05:53:36;;;;;;;19.53;12.90;;;11.80;43.40;;;;;;5094873;28;20539;-80
2022/11/16 05:56:01;;;;;;;22.03;12.50;;;11.80;43.40;;;;;;5082156;28;20412;-71
2022/11/16 05:58:30;;;;;;;26.17;12.50;;;11.70;43.40;;;;;;5092360;28;20408;-75
2022/11/16 06:01:06;;;;;;;25.20;12.60;;;11.80;43.70;;;;;;5082468;28;20174;-80
2022/11/16 06:04:06;;;;;;;21.50;12.30;;;11.80;43.50;;;;;;5078650;28;20562;-80
2022/11/16 06:06:32;;;;;;;21.17;12.17;;;11.80;43.50;;;;;;5088534;28;20422;-79
2022/11/16 06:09:08;;;;;;;19.37;12.63;;;11.90;43.60;;;;;;5084528;28;20481;-80
2022/11/16 06:11:37;;;;;;;20.97;11.70;;;11.90;43.50;;;;;;5076244;28;21009;-81
2022/11/16 06:14:06;;;;;;;20.30;11.40;;;11.80;43.50;;;;;;5089358;28;20415;-83
2022/11/16 06:16:32;;;;;;;24.20;11.47;;;11.80;43.50;;;;;;5078356;28;20414;-82
2022/11/16 06:19:30;;;;;;;20.27;12.27;;;11.80;43.50;;;;;;5083869;28;20896;-83
2022/11/16 06:21:56;;;;;;;20.97;12.10;;;11.80;43.40;;;;;;5089571;28;20182;-81
2022/11/16 06:24:24;;;;;;;19.10;12.30;;;11.80;43.50;;;;;;5076053;28;20451;-77
2022/11/16 06:27:00;;;;;;;24.77;12.87;;;11.80;43.50;;;;;;5082423;28;20192;-77
2022/11/16 06:29:26;;;;;;;19.30;13.07;;;11.80;43.50;;;;;;5074466;28;20435;-76
2022/11/16 06:31:51;;;;;;;23.73;12.97;;;11.80;43.50;;;;;;5079675;28;20538;-85
2022/11/16 06:34:17;;;;;;;23.83;13.37;;;11.80;43.50;;;;;;5078108;28;20166;-78
2022/11/16 06:36:43;;;;;;;22.37;13.73;;;11.80;43.40;;;;;;5082064;28;20257;-77
2022/11/16 06:39:10;;;;;;;23.20;12.87;;;11.80;43.70;;;;;;5078567;28;20848;-78
2022/11/16 06:41:35;;;;;;;20.57;12.97;;;11.80;43.50;;;;;;5085677;28;20519;-78
2022/11/16 06:44:01;;;;;;;28.33;13.70;;;11.80;43.70;;;;;;5087788;28;20413;-77
2022/11/16 06:46:27;;;;;;;20.50;13.57;;;11.80;43.50;;;;;;5085438;28;20187;-77
2022/11/16 06:48:52;;;;;;;22.90;13.87;;;11.70;43.60;;;;;;5091593;28;20261;-78
2022/11/16 06:51:18;;;;;;;19.77;13.23;;;11.70;43.70;;;;;;5082000;28;20191;-78
2022/11/16 06:53:44;;;;;;;34.20;13.77;;;11.70;43.70;;;;;;5081397;28;20170;-77
2022/11/16 06:56:13;;;;;;;24.60;12.93;;;11.80;43.80;;;;;;5087704;28;20477;-78
2022/11/16 06:58:39;;;;;;;23.13;13.40;;;11.80;43.70;;;;;;5089269;28;20200;-68
2022/11/16 07:01:06;;;;;;;21.07;12.90;;;11.80;43.50;;;;;;5076151;28;20476;-68
2022/11/16 07:03:32;;;;;;;20.10;12.60;;;11.80;43.50;;;;;;5084890;28;20209;-68
2022/11/16 07:05:57;;;;;;;23.00;13.07;;;11.80;43.50;;;;;;5074136;28;20417;-68
2022/11/16 07:08:23;;;;;;;23.13;13.43;;;11.90;43.80;;;;;;5076420;28;20529;-70
2022/11/16 07:10:48;;;;;;;20.67;12.70;;;11.90;43.60;;;;;;5081237;28;20182;-71
2022/11/16 07:13:14;;;;;;;20.90;13.00;;;11.80;43.50;;;;;;5077159;28;20167;-71
2022/11/16 07:15:40;;;;;;;25.23;14.07;;;11.70;43.40;;;;;;5082841;28;20186;-70
2022/11/16 07:18:06;;;;;;;20.20;12.87;;;11.70;47.50;;;;;;5073923;28;20613;-71
2022/11/16 07:20:33;;;;;;;26.73;13.70;;;11.70;43.50;;;;;;5073476;28;20205;-70
2022/11/16 07:23:00;;;;;;;23.53;12.43;;;11.60;43.30;;;;;;5074254;28;20405;-70
2022/11/16 07:25:26;;;;;;;22.13;12.90;;;11.60;43.30;;;;;;5079651;28;20821;-70
2022/11/16 07:27:51;;;;;;;22.93;13.23;;;11.60;43.30;;;;;;5073878;28;20420;-70
2022/11/16 07:30:17;;;;;;;20.43;12.00;;;11.60;43.30;;;;;;5076315;28;20616;-71
2022/11/16 07:32:43;;;;;;;20.83;11.70;;;11.60;43.30;;;;;;5074789;28;20203;-70
2022/11/16 07:35:09;;;;;;;21.27;12.47;;;11.60;43.30;;;;;;5072161;28;20418;-70
2022/11/16 07:37:34;;;;;;;23.30;13.03;;;11.70;43.40;;;;;;5071705;28;20187;-70
2022/11/16 07:40:00;;;;;;;19.47;12.70;;;11.80;43.50;;;;;;5080525;28;20186;-70
2022/11/16 07:42:26;;;;;;;20.40;12.13;;;11.90;43.50;;;;;;5080987;28;20406;-70
2022/11/16 07:44:51;;;;;;;18.87;11.67;;;11.90;43.60;;;;;;5082075;28;20178;-70
2022/11/16 07:47:17;;;;;;;18.40;10.90;;;12.00;43.70;;;;;;5077317;28;20183;-70
2022/11/16 07:49:43;;;;;;;18.27;10.40;;;12.00;43.70;;;;;;5073198;28;20252;-70
2022/11/16 07:52:09;;;;;;;19.43;10.80;;;12.10;43.70;;;;;;5072708;28;20194;-85
2022/11/16 07:54:35;;;;;;;16.30;10.67;;;12.20;43.90;;;;;;5074136;28;20269;-85
2022/11/16 07:57:07;;;;;;;18.13;10.23;;;12.00;38.60;;;;;;5079127;28;20940;-85
2022/11/16 07:59:33;;;;;;;20.67;10.63;;;12.10;43.90;;;;;;5085726;28;20495;-85
2022/11/16 08:02:00;;;;;;;14.60;9.20;;;12.20;33.50;;;;;;5079409;28;21049;-85
2022/11/16 08:04:42;;;;;;;17.70;10.03;;;12.30;32.50;;;;;;5081108;28;21124;-85
2022/11/16 08:07:18;;;;;;;16.60;9.03;;;12.40;30.00;;;;;;5086575;28;21732;-84
2022/11/16 08:09:54;;;;;;;13.80;10.20;;;12.40;19.20;;;;;;5078740;28;20911;-83
2022/11/16 08:12:20;;;;;;;18.33;10.30;;;12.40;23.00;;;;;;5076236;28;20539;-84
2022/11/16 08:14:48;;;;;;;14.43;9.57;;;12.60;24.40;;;;;;5085023;28;20453;-83
2022/11/16 08:17:18;;;;;;;15.47;9.60;;;12.60;20.60;;;;;;5084500;28;20656;-83
2022/11/16 08:19:49;;;;;;;15.90;8.80;;;12.50;17.70;;;;;;5091128;28;20407;-83
2022/11/16 08:22:15;;;;;;;19.13;9.70;;;12.60;18.60;;;;;;5082715;28;20412;-83
2022/11/16 08:25:30;;;;;;;12.80;9.07;;;12.60;17.50;;;;;;5086760;28;20417;-85
2022/11/16 08:28:06;;;;;;;13.63;8.07;;;12.70;17.40;;;;;;5079115;28;20206;-85
2022/11/16 08:30:32;;;;;;;13.23;7.40;;;12.70;11.40;;;;;;5092566;28;20438;-84
2022/11/16 08:32:57;;;;;;;14.23;8.13;;;12.60;8.40;;;;;;5077264;28;20944;-85
2022/11/16 08:35:23;;;;;;;16.20;7.00;;;12.60;13.50;;;;;;5071572;28;20267;-84
2022/11/16 08:37:49;;;;;;;13.23;7.80;;;12.60;9.70;;;;;;5073135;28;20189;-84
2022/11/16 08:40:14;;;;;;;16.27;7.73;;;12.50;10.00;;;;;;5072943;28;20179;-84
2022/11/16 08:42:40;;;;;;;15.00;7.77;;;12.40;13.50;;;;;;5079312;28;20170;-84
2022/11/16 08:45:06;;;;;;;12.53;6.33;;;12.50;17.10;;;;;;5079946;28;20551;-84
2022/11/16 08:47:32;;;;;;;10.63;6.20;;;12.50;17.40;;;;;;5073086;28;20199;-83
2022/11/16 08:49:57;;;;;;;16.33;6.00;;;12.70;17.20;;;;;;5084322;28;20448;-83
2022/11/16 08:52:23;;;;;;;11.93;5.30;;;12.70;8.00;;;;;;5074206;28;20714;-83
2022/11/16 08:54:48;;;;;;;13.43;4.57;;;12.70;1.00;;;;;;5075035;28;20174;-82
2022/11/16 08:57:14;;;;;;;8.40;5.17;;;12.70;1.00;;;;;;5073347;28;20175;-83
2022/11/16 08:59:48;;;;;;;11.63;5.47;;;12.70;1.00;;;;;;5079106;28;20257;-83
2022/11/16 09:02:24;;;;;;;14.17;4.90;;;12.70;1.00;;;;;;5071918;28;20223;-83
2022/11/16 09:04:50;;;;;;;13.60;4.90;;;12.60;1.00;;;;;;5072710;28;20517;-83
2022/11/16 09:07:16;;;;;;;6.60;4.30;;;12.40;1.00;;;;;;5072864;28;20595;-83
2022/11/16 09:09:41;;;;;;;9.17;4.10;;;12.40;1.00;;;;;;5087210;28;20420;-83
2022/11/16 09:12:07;;;;;;;10.90;4.20;;;12.30;1.00;;;;;;5075910;28;20194;-83
2022/11/16 09:14:33;;;;;;;8.80;3.50;;;12.30;1.60;;;;;;5077328;28;20171;-83
2022/11/16 09:16:58;;;;;;;6.20;3.77;;;12.30;4.80;;;;;;5077117;28;20173;-83
2022/11/16 09:19:24;;;;;;;8.67;3.90;;;12.40;11.20;;;;;;5075679;28;20182;-83
2022/11/16 09:21:49;;;;;;;11.00;3.30;;;12.50;5.60;;;;;;5075644;28;20213;-83
2022/11/16 09:24:15;;;;;;;5.50;2.70;;;12.60;1.90;;;;;;5076481;28;20198;-85
2022/11/16 09:26:41;;;;;;;10.60;2.53;;;12.50;1.00;;;;;;5079318;28;20228;-84
2022/11/16 09:29:10;;;;;;;11.30;2.37;;;12.30;1.00;;;;;;5075346;28;20668;-84
2022/11/16 09:31:36;;;;;;;5.70;2.27;;;12.30;1.00;;;;;;5076323;28;20195;-84
2022/11/16 09:34:02;;;;;;;11.43;2.37;;;12.20;1.00;;;;;;5082255;28;20417;-84
2022/11/16 09:36:28;;;;;;;4.30;1.53;;;12.10;1.00;;;;;;5089354;28;20183;-84
2022/11/16 09:38:54;;;;;;;11.30;2.00;;;12.10;1.00;;;;;;5075341;28;20443;-84
2022/11/16 09:41:28;;;;;;;6.23;1.53;;;12.00;1.00;;;;;;5074875;28;20193;-84
2022/11/16 09:44:38;;;;;;;5.97;1.30;;;12.00;1.00;;;;;;5076386;28;20405;-84
2022/11/16 09:47:07;;;;;;;6.63;1.27;;;11.90;1.00;;;;;;5034100;28;20415;-84
2022/11/16 09:49:39;;;;;;;6.80;2.47;;;12.00;1.00;;;;;;5033648;28;20466;-84
2022/11/16 09:52:28;;;;;;;8.43;1.00;;;12.00;1.00;;;;;;5033484;28;20454;-84
2022/11/16 09:54:57;;;;;;;9.03;1.60;;;12.10;1.00;;;;;;5030562;28;20517;-84
2022/11/16 09:57:31;;;;;;;4.70;1.10;;;12.10;1.00;;;;;;5032742;28;20447;-84
2022/11/16 10:00:19;;;;;;;4.33;1.53;;;12.30;1.00;;;;;;5033715;28;20830;-84
2022/11/16 10:02:50;;;;;;;6.60;2.23;;;12.40;1.00;;;;;;5033684;28;20418;-84
2022/11/16 10:05:24;;;;;;;2.57;1.60;;;12.50;1.00;;;;;;5016623;28;20418;-84
2022/11/16 10:08:00;;;;;;;6.47;1.33;;;12.50;1.00;;;;;;5033535;28;20534;-84
2022/11/16 10:10:36;;;;;;;3.70;1.07;;;12.70;1.00;;;;;;5033444;28;20426;-82
2022/11/16 10:13:21;;;;;;;4.77;1.10;;;12.80;1.00;;;;;;5033571;28;20965;-83
2022/11/16 10:15:54;;;;;;;6.23;1.70;;;12.80;1.00;;;;;;5033476;28;20894;-83
2022/11/16 10:18:43;;;;;;;5.30;1.50;;;12.90;1.00;;;;;;5033337;28;20419;-82
2022/11/16 10:21:37;;;;;;;6.17;1.30;;;13.00;1.00;;;;;;5059006;28;20421;-82
2022/11/16 10:24:28;;;;;;;9.67;1.53;;;13.10;1.00;;;;;;5076520;28;20746;-82
2022/11/16 10:27:33;;;;;;;3.53;1.00;;;13.10;1.00;;;;;;5075356;28;20405;-82
2022/11/16 10:29:58;;;;;;;8.27;1.20;;;13.20;1.00;;;;;;5074136;28;20504;-82
2022/11/16 10:32:27;;;;;;;11.57;1.17;;;13.40;1.00;;;;;;5075031;28;20556;-82
2022/11/16 10:35:11;;;;;;;11.70;1.33;;;13.60;1.00;;;;;;5075155;28;20171;-82
2022/11/16 10:37:43;;;;;;;7.97;1.30;;;13.40;1.00;;;;;;5073846;28;20425;-82
2022/11/16 10:40:21;;;;;;;5.90;1.10;;;13.50;1.00;;;;;;5074408;28;20412;-82
2022/11/16 10:42:56;;;;;;;7.10;1.43;;;13.50;1.00;;;;;;5073795;28;20424;-82
2022/11/16 10:45:30;;;;;;;5.20;1.47;;;13.50;1.00;;;;;;5075230;28;20393;-82
2022/11/16 10:48:14;;;;;;;6.93;1.97;;;13.60;1.00;;;;;;5073735;28;20766;-82
2022/11/16 10:50:47;;;;;;;4.77;1.00;;;13.80;1.00;;;;;;5073475;28;20413;-82
2022/11/16 10:53:24;;;;;;;7.83;1.13;;;13.90;1.00;;;;;;5075053;28;20456;-82
2022/11/16 10:56:12;;;;;;;3.63;1.20;;;14.00;1.00;;;;;;5078421;28;20910;-82
2022/11/16 10:58:58;;;;;;;3.73;1.37;;;14.10;1.00;;;;;;5012779;28;20416;-83
2022/11/16 11:01:37;;;;;;;5.33;1.10;;;14.20;1.00;;;;;;4995711;28;20511;-83
2022/11/16 11:04:22;;;;;;;4.93;1.17;;;14.20;1.00;;;;;;5012571;28;20511;-83
2022/11/16 11:06:53;;;;;;;8.87;1.53;;;14.20;1.00;;;;;;5008259;28;20440;-83
2022/11/16 11:09:31;;;;;;;8.53;1.40;;;14.20;1.00;;;;;;4996149;28;20435;-83
2022/11/16 11:15:09;;;;;;;4.87;1.37;;;14.20;1.00;;;;;;5012616;28;20402;-83
2022/11/16 11:17:37;;;;;;;11.60;2.20;;;14.30;1.00;;;;;;5012346;28;20522;-83
2022/11/16 11:20:13;;;;;;;7.60;1.20;;;14.30;1.00;;;;;;5012564;28;20531;-83
2022/11/16 11:22:45;;;;;;;24.30;1.33;;;14.40;1.00;;;;;;4996502;28;20439;-83
2022/11/16 11:25:18;;;;;;;5.43;1.50;;;14.40;1.00;;;;;;5012482;28;20436;-83
2022/11/16 11:27:44;;;;;;;5.43;1.57;;;14.60;1.00;;;;;;4995694;28;20395;-83
2022/11/16 11:30:20;;;;;;;3.57;1.30;;;14.70;1.00;;;;;;5011439;28;20435;-83
2022/11/16 11:32:47;;;;;;;5.60;1.37;;;14.80;1.00;;;;;;5011968;28;20206;-83
2022/11/16 11:35:31;;;;;;;5.80;1.50;;;14.90;1.00;;;;;;5017863;28;20460;-83
2022/11/16 11:38:01;;;;;;;12.63;2.03;;;14.90;1.00;;;;;;5079579;28;20433;-83
2022/11/16 11:40:29;;;;;;;6.53;1.60;;;14.90;1.00;;;;;;5073143;28;20432;-82
2022/11/16 11:43:00;;;;;;;4.30;1.37;;;15.00;1.00;;;;;;5073823;28;20413;-82
2022/11/16 11:45:57;;;;;;;6.57;1.70;;;15.10;1.00;;;;;;5073667;28;20506;-82
2022/11/16 11:48:35;;;;;;;5.27;1.57;;;15.00;1.00;;;;;;5075075;28;20441;-83
2022/11/16 11:51:19;;;;;;;3.30;1.10;;;14.90;1.00;;;;;;5078966;28;20947;-83
2022/11/16 11:53:53;;;;;;;4.90;1.20;;;15.00;1.00;;;;;;5085961;28;20404;-84
2022/11/16 11:56:19;;;;;;;9.53;1.80;;;14.90;1.00;;;;;;5074709;28;20440;-85
2022/11/16 11:58:46;;;;;;;6.53;1.40;;;14.80;1.00;;;;;;5090183;28;20459;-83
2022/11/16 12:01:21;;;;;;;5.80;1.33;;;14.70;1.00;;;;;;5077684;28;20413;-83
2022/11/16 12:04:13;;;;;;;3.37;1.50;;;14.60;1.00;;;;;;5073214;28;20416;-83
2022/11/16 12:06:55;;;;;;;8.57;1.67;;;14.50;1.00;;;;;;5072308;28;20496;-83
2022/11/16 12:09:41;;;;;;;8.70;1.60;;;14.30;1.00;;;;;;5073875;28;20788;-88
2022/11/16 12:12:10;;;;;;;6.40;1.60;;;15.60;1.00;;;;;;5072442;28;20869;-82
2022/11/16 12:14:55;;;;;;;5.70;1.73;;;14.10;1.00;;;;;;5079012;28;20892;-82
2022/11/16 12:17:36;;;;;;;9.93;1.87;;;13.90;1.00;;;;;;5072262;28;20421;-81
2022/11/16 12:20:16;;;;;;;4.43;1.50;;;13.80;1.00;;;;;;5077005;28;20807;-84
2022/11/16 12:23:09;;;;;;;6.77;1.73;;;13.80;1.00;;;;;;5081131;28;20421;-83
2022/11/16 12:26:00;;;;;;;7.73;1.30;;;13.90;1.00;;;;;;5074455;28;20399;-83
2022/11/16 12:28:31;;;;;;;7.93;1.67;;;13.90;1.00;;;;;;5073261;28;20413;-81
2022/11/16 12:31:19;;;;;;;4.67;1.67;;;13.90;1.00;;;;;;5079675;28;20436;-80
2022/11/16 12:34:00;;;;;;;7.63;2.40;;;13.90;1.00;;;;;;5073566;28;20443;-78
2022/11/16 12:37:11;;;;;;;7.03;2.10;;;13.90;1.00;;;;;;5080209;28;20469;-78
2022/11/16 12:39:59;;;;;;;8.03;2.00;;;14.00;1.00;;;;;;5006500;28;20853;-78
2022/11/16 12:42:41;;;;;;;9.30;1.77;;;14.10;1.00;;;;;;5007195;28;20527;-86
2022/11/16 12:45:40;;;;;;;10.43;1.70;;;14.40;1.00;;;;;;5000206;28;20467;-86
2022/11/16 12:48:33;;;;;;;6.67;1.40;;;14.60;1.00;;;;;;5001032;28;20431;-85
2022/11/16 12:51:09;;;;;;;9.40;1.53;;;14.70;1.00;;;;;;5006214;28;20427;-87
2022/11/16 12:54:19;;;;;;;4.40;1.70;;;14.80;1.00;;;;;;4999213;28;20962;-84
2022/11/16 12:57:07;;;;;;;12.63;1.90;;;14.90;1.00;;;;;;4998789;28;20429;-81
2022/11/16 12:59:42;;;;;;;7.03;1.77;;;14.90;1.00;;;;;;4993118;28;20460;-81
2022/11/16 13:02:45;;;;;;;8.70;1.73;;;14.80;1.00;;;;;;5000689;28;20443;-74
2022/11/16 13:05:24;;;;;;;9.63;1.77;;;14.70;1.00;;;;;;5005095;28;20751;-74
2022/11/16 13:08:06;;;;;;;9.33;2.40;;;14.70;1.00;;;;;;4992249;28;20939;-74
2022/11/16 13:10:47;;;;;;;3.63;1.40;;;14.60;1.00;;;;;;5007110;28;20450;-74
2022/11/16 13:13:28;;;;;;;6.53;2.13;;;14.70;1.00;;;;;;4995106;28;20497;-73
2022/11/16 13:15:55;;;;;;;13.70;1.80;;;14.80;1.00;;;;;;5058906;28;20436;-74
2022/11/16 13:18:26;;;;;;;3.53;1.70;;;14.90;1.00;;;;;;5087884;28;20785;-73
2022/11/16 13:21:04;;;;;;;7.20;2.70;;;15.10;1.00;;;;;;5079843;28;20786;-74
2022/11/16 13:23:29;;;;;;;10.50;1.43;;;15.20;1.00;;;;;;5075536;28;20408;-73
2022/11/16 13:26:29;;;;;;;5.40;1.40;;;15.10;1.00;;;;;;5085318;28;20499;-84
2022/11/16 13:32:56;;;;;;;10.43;1.63;;;14.90;1.00;;;;;;5082634;28;20505;-84
2022/11/16 13:39:36;;;;;;;7.50;1.90;;;14.70;1.00;;;;;;5000018;28;20482;-85
2022/11/16 13:42:10;;;;;;;5.13;1.30;;;14.60;1.00;;;;;;5009581;28;20411;-74
2022/11/16 13:44:36;;;;;;;5.83;1.70;;;14.60;1.00;;;;;;5010714;28;20498;-73
2022/11/16 13:47:05;;;;;;;4.40;1.70;;;14.60;1.00;;;;;;5001992;28;20943;-74
2022/11/16 13:49:56;;;;;;;12.30;3.13;;;14.60;1.00;;;;;;4975550;28;20205;-74
2022/11/16 13:52:22;;;;;;;5.67;2.23;;;14.70;1.00;;;;;;5004918;28;20460;-74
2022/11/16 13:54:53;;;;;;;4.23;1.73;;;14.80;1.00;;;;;;5007149;28;20429;-74
2022/11/16 13:57:23;;;;;;;7.30;1.30;;;14.90;1.00;;;;;;5010065;28;20412;-85
2022/11/16 14:00:44;;;;;;;4.60;1.20;;;14.80;1.00;;;;;;5003813;28;20416;-85
2022/11/16 14:03:16;;;;;;;5.50;1.20;;;14.80;1.00;;;;;;4976047;28;20489;-84
2022/11/16 14:06:28;;;;;;;6.63;1.40;;;14.80;1.00;;;;;;4993878;28;20541;-85
2022/11/16 14:09:31;;;;;;;3.73;1.60;;;14.80;1.00;;;;;;4988212;28;20472;-85
2022/11/16 14:12:45;;;;;;;8.37;1.73;;;14.80;1.00;;;;;;5050043;28;20461;-84
2022/11/16 14:15:33;;;;;;;3.53;1.40;;;14.80;1.00;;;;;;4994689;28;20582;-85
2022/11/16 14:18:33;;;;;;;6.00;1.70;;;14.80;1.00;;;;;;4985453;28;20421;-85
2022/11/16 14:25:03;;;;;;;9.27;1.20;;;14.60;1.00;;;;;;4989943;28;20987;-85
2022/11/16 14:27:45;;;;;;;8.50;1.80;;;14.60;1.00;;;;;;4985719;28;20470;-86
2022/11/16 14:30:23;;;;;;;7.03;1.57;;;14.50;1.00;;;;;;4995220;28;20512;-85
2022/11/16 14:33:36;;;;;;;8.97;1.40;;;14.50;1.00;;;;;;4978207;28;20884;-85
2022/11/16 14:39:36;;;;;;;5.17;1.90;;;14.50;1.00;;;;;;5030192;28;20526;-85
2022/11/16 14:42:16;;;;;;;5.17;1.43;;;14.60;1.00;;;;;;5031412;28;20465;-86
2022/11/16 14:44:49;;;;;;;8.60;1.57;;;14.50;1.00;;;;;;5028447;28;20462;-85
2022/11/16 14:47:35;;;;;;;3.77;1.53;;;14.40;1.00;;;;;;5028511;28;20407;-84
2022/11/16 14:50:21;;;;;;;6.93;1.53;;;14.30;1.00;;;;;;5031835;28;20419;-86
2022/11/16 14:53:02;;;;;;;13.97;1.53;;;14.20;1.00;;;;;;5089244;28;20479;-86
2022/11/16 14:55:31;;;;;;;7.30;1.53;;;14.20;1.00;;;;;;5086179;28;20459;-86
2022/11/16 15:01:38;;;;;;;4.83;1.40;;;14.00;1.00;;;;;;5082349;28;20760;-83
2022/11/16 15:07:28;;;;;;;4.87;1.50;;;13.80;1.00;;;;;;5077459;28;20467;-85
2022/11/16 15:10:24;;;;;;;7.77;1.60;;;13.70;1.00;;;;;;5091786;28;20858;-86
2022/11/16 15:13:43;;;;;;;4.63;1.77;;;13.70;1.00;;;;;;5079060;28;20502;-85
2022/11/16 15:16:24;;;;;;;6.30;1.50;;;13.60;1.00;;;;;;5074996;28;20475;-85
2022/11/16 15:19:11;;;;;;;6.63;1.73;;;13.60;1.00;;;;;;5075055;28;20425;-86
2022/11/16 15:21:37;;;;;;;4.10;1.17;;;13.50;1.00;;;;;;5077284;28;20421;-87
2022/11/16 15:24:08;;;;;;;4.47;1.50;;;13.40;1.00;;;;;;5076687;28;20454;-86
2022/11/16 15:26:57;;;;;;;13.40;1.80;;;13.40;1.00;;;;;;5088271;28;20191;-85
2022/11/16 15:29:31;;;;;;;9.13;1.60;;;13.40;1.00;;;;;;5074853;28;20429;-83
2022/11/16 15:32:48;;;;;;;5.27;1.63;;;13.40;1.00;;;;;;5078146;28;20448;-84